createdAt,value
2018-01-28T00:00:46.819Z,0
2018-01-28T00:01:56.626Z,0
2018-01-28T00:03:06.672Z,0
2018-01-28T00:04:16.760Z,0
2018-01-28T00:05:26.536Z,0
2018-01-28T00:06:36.622Z,0
2018-01-28T00:07:46.671Z,0
2018-01-28T00:08:56.732Z,0
2018-01-28T00:10:06.530Z,0
2018-01-28T00:11:16.590Z,0
2018-01-28T00:12:26.634Z,0
2018-01-28T00:13:36.499Z,0
2018-01-28T00:14:46.565Z,0
2018-01-28T00:15:56.690Z,0
2018-01-28T00:17:06.223Z,0
2018-01-28T00:18:16.002Z,0
2018-01-28T00:19:26.105Z,0
2018-01-28T00:20:36.165Z,0
2018-01-28T00:21:46.016Z,0
2018-01-28T00:22:56.125Z,0
2018-01-28T00:24:06.164Z,0
2018-01-28T00:25:16.271Z,0
2018-01-28T00:26:26.362Z,0
2018-01-28T00:27:36.415Z,0
2018-01-28T00:28:46.212Z,0
2018-01-28T00:29:56.397Z,0
2018-01-28T00:31:06.500Z,0
2018-01-28T00:32:16.660Z,0
2018-01-28T00:33:26.765Z,0
2018-01-28T00:34:36.823Z,0
2018-01-28T00:35:46.859Z,0
2018-01-28T00:36:56.908Z,0
2018-01-28T00:38:06.695Z,0
2018-01-28T00:39:16.940Z,0
2018-01-28T00:40:27.129Z,0
2018-01-28T00:41:37.191Z,0
2018-01-28T00:42:47.296Z,0
2018-01-28T00:43:57.098Z,0
2018-01-28T00:45:07.147Z,0
2018-01-28T00:46:17.208Z,0
2018-01-28T00:47:26.981Z,0
2018-01-28T00:48:37.023Z,0
2018-01-28T00:49:47.125Z,0
2018-01-28T00:50:56.961Z,0
2018-01-28T00:52:06.755Z,0
2018-01-28T00:53:16.804Z,0
2018-01-28T00:54:28.260Z,0
2018-01-28T00:55:38.341Z,0
2018-01-28T00:56:48.409Z,0
2018-01-28T00:57:58.506Z,0
2018-01-28T00:59:08.295Z,0
2018-01-28T01:00:18.079Z,0
2018-01-28T01:01:28.119Z,0
2018-01-28T01:02:38.563Z,0
2018-01-28T01:03:48.675Z,0
2018-01-28T01:04:58.531Z,0
2018-01-28T01:06:08.622Z,0
2018-01-28T01:07:18.669Z,0
2018-01-28T01:08:28.450Z,0
2018-01-28T01:09:38.613Z,0
2018-01-28T01:10:48.668Z,0
2018-01-28T01:11:58.746Z,0
2018-01-28T01:13:08.879Z,0
2018-01-28T01:14:18.922Z,0
2018-01-28T01:15:29.048Z,0
2018-01-28T01:16:39.092Z,0
2018-01-28T01:17:48.910Z,0
2018-01-28T01:18:58.702Z,0
2018-01-28T01:20:08.817Z,0
2018-01-28T01:21:18.865Z,0
2018-01-28T01:22:28.952Z,0
2018-01-28T01:23:38.793Z,0
2018-01-28T01:24:48.840Z,0
2018-01-28T01:25:58.629Z,0
2018-01-28T01:27:08.408Z,0
2018-01-28T01:28:18.322Z,0
2018-01-28T01:29:28.459Z,0
2018-01-28T01:30:38.380Z,0
2018-01-28T01:31:48.212Z,0
2018-01-28T01:32:58.044Z,0
2018-01-28T01:34:08.091Z,0
2018-01-28T01:35:17.927Z,0
2018-01-28T01:36:28.003Z,0
2018-01-28T01:37:38.035Z,0
2018-01-28T01:38:48.532Z,0
2018-01-28T01:39:58.589Z,0
2018-01-28T01:41:08.384Z,0
2018-01-28T01:42:18.417Z,0
2018-01-28T01:43:28.521Z,0
2018-01-28T01:44:38.576Z,0
2018-01-28T01:45:48.668Z,0
2018-01-28T01:46:58.586Z,0
2018-01-28T01:48:08.427Z,0
2018-01-28T01:49:18.467Z,0
2018-01-28T01:50:28.644Z,0
2018-01-28T01:51:38.800Z,0
2018-01-28T01:52:48.711Z,0
2018-01-28T01:53:58.741Z,0
2018-01-28T01:55:08.816Z,0
2018-01-28T01:56:18.660Z,0
2018-01-28T01:57:28.276Z,0
2018-01-28T01:58:38.426Z,0
2018-01-28T01:59:48.488Z,0
2018-01-28T02:00:58.536Z,0
2018-01-28T02:02:08.585Z,0
2018-01-28T02:03:18.636Z,0
2018-01-28T02:04:28.741Z,0
2018-01-28T02:05:38.778Z,0
2018-01-28T02:06:48.867Z,0
2018-01-28T02:07:58.931Z,0
2018-01-28T02:09:08.975Z,0
2018-01-28T02:10:18.756Z,0
2018-01-28T02:11:28.544Z,0
2018-01-28T02:12:38.598Z,0
2018-01-28T02:13:48.388Z,0
2018-01-28T02:14:58.440Z,0
2018-01-28T02:16:08.481Z,0
2018-01-28T02:17:18.535Z,0
2018-01-28T02:18:28.592Z,0
2018-01-28T02:19:38.627Z,0
2018-01-28T02:20:48.669Z,0
2018-01-28T02:21:58.705Z,0
2018-01-28T02:23:08.753Z,0
2018-01-28T02:24:18.801Z,0
2018-01-28T02:25:28.872Z,0
2018-01-28T02:26:38.667Z,0
2018-01-28T02:27:48.720Z,0
2018-01-28T02:28:58.783Z,0
2018-01-28T02:30:08.845Z,0
2018-01-28T02:31:18.903Z,0
2018-01-28T02:32:28.951Z,0
2018-01-28T02:33:38.803Z,0
2018-01-28T02:34:48.345Z,0
2018-01-28T02:35:58.377Z,0
2018-01-28T02:37:08.428Z,0
2018-01-28T02:38:18.505Z,0
2018-01-28T02:39:28.590Z,0
2018-01-28T02:40:38.658Z,0
2018-01-28T02:41:48.707Z,0
2018-01-28T02:42:58.752Z,0
2018-01-28T02:44:08.556Z,0
2018-01-28T02:45:18.622Z,0
2018-01-28T02:46:27.898Z,0
2018-01-28T02:47:37.705Z,0
2018-01-28T02:48:47.761Z,0
2018-01-28T02:49:57.541Z,0
2018-01-28T02:51:07.340Z,0
2018-01-28T02:52:17.392Z,0
2018-01-28T02:53:27.440Z,0
2018-01-28T02:54:37.547Z,0
2018-01-28T02:55:47.353Z,0
2018-01-28T02:56:57.410Z,0
2018-01-28T02:58:07.480Z,0
2018-01-28T02:59:17.547Z,0
2018-01-28T03:00:27.594Z,0
2018-01-28T03:01:37.640Z,0
2018-01-28T03:02:47.438Z,0
2018-01-28T03:34:39.105Z,0
2018-01-28T03:35:48.628Z,0
2018-01-28T03:36:58.654Z,0
2018-01-28T03:38:08.443Z,0
2018-01-28T03:39:18.483Z,0
2018-01-28T03:40:28.275Z,0
2018-01-28T03:41:38.061Z,0
2018-01-28T03:42:48.110Z,0
2018-01-28T03:43:58.159Z,0
2018-01-28T03:45:07.942Z,0
2018-01-28T03:46:17.712Z,0
2018-01-28T03:47:27.815Z,0
2018-01-28T03:48:37.365Z,0
2018-01-28T03:49:47.149Z,0
2018-01-28T03:50:56.934Z,0
2018-01-28T03:52:07.032Z,0
2018-01-28T03:53:16.564Z,0
2018-01-28T03:54:26.604Z,0
2018-01-28T03:55:36.391Z,0
2018-01-28T03:56:46.446Z,0
2018-01-28T03:57:57.134Z,0
2018-01-28T03:59:07.178Z,0
2018-01-28T04:00:17.223Z,0
2018-01-28T04:01:27.260Z,0
2018-01-28T04:02:38.223Z,0
2018-01-28T04:03:48.320Z,0
2018-01-28T04:04:58.414Z,0
2018-01-28T04:06:08.203Z,0
2018-01-28T04:07:18.255Z,0
2018-01-28T04:08:28.311Z,0
2018-01-28T04:09:38.372Z,0
2018-01-28T04:10:48.423Z,0
2018-01-28T04:11:58.226Z,0
2018-01-28T04:13:08.299Z,0
2018-01-28T04:14:18.340Z,0
2018-01-28T04:15:28.126Z,0
2018-01-28T04:16:37.904Z,0
2018-01-28T04:17:47.956Z,0
2018-01-28T04:18:57.741Z,0
2018-01-28T04:20:08.417Z,0
2018-01-28T04:21:18.192Z,0
2018-01-28T04:22:27.982Z,0
2018-01-28T04:23:37.771Z,0
2018-01-28T04:24:47.816Z,0
2018-01-28T04:25:57.852Z,0
2018-01-28T04:27:07.905Z,0
2018-01-28T04:28:17.681Z,0
2018-01-28T04:29:27.195Z,0
2018-01-28T04:30:37.225Z,0
2018-01-28T04:31:47.275Z,0
2018-01-28T04:32:57.383Z,0
2018-01-28T04:34:07.445Z,0
2018-01-28T04:35:17.487Z,0
2018-01-28T04:36:27.522Z,0
2018-01-28T04:37:37.049Z,0
2018-01-28T04:38:47.140Z,0
2018-01-28T04:39:56.918Z,0
2018-01-28T04:41:06.962Z,0
2018-01-28T04:42:17.011Z,0
2018-01-28T04:43:26.804Z,0
2018-01-28T04:44:36.899Z,0
2018-01-28T04:45:46.674Z,0
2018-01-28T04:46:56.718Z,0
2018-01-28T04:48:06.757Z,0
2018-01-28T04:49:16.526Z,0
2018-01-28T04:50:26.625Z,0
2018-01-28T04:51:36.665Z,0
2018-01-28T04:52:46.446Z,0
2018-01-28T04:53:56.472Z,0
2018-01-28T04:55:06.262Z,0
2018-01-28T04:56:16.317Z,0
2018-01-28T04:57:26.367Z,0
2018-01-28T04:58:36.456Z,0
2018-01-28T04:59:46.498Z,0
2018-01-28T05:00:56.534Z,0
2018-01-28T05:02:06.311Z,0
2018-01-28T05:03:16.387Z,0
2018-01-28T05:04:26.446Z,0
2018-01-28T05:05:36.497Z,0
2018-01-28T05:06:46.554Z,0
2018-01-28T05:07:56.646Z,0
2018-01-28T05:09:06.424Z,0
2018-01-28T05:10:16.456Z,0
2018-01-28T05:11:26.500Z,0
2018-01-28T05:12:36.517Z,0
2018-01-28T05:13:46.564Z,0
2018-01-28T05:14:56.605Z,0
2018-01-28T05:16:06.397Z,0
2018-01-28T05:17:16.449Z,0
2018-01-28T05:18:26.238Z,0
2018-01-28T05:19:36.023Z,0
2018-01-28T05:20:45.800Z,0
2018-01-28T05:21:55.848Z,0
2018-01-28T05:23:05.886Z,0
2018-01-28T05:24:15.935Z,0
2018-01-28T05:25:26.048Z,0
2018-01-28T05:26:36.084Z,0
2018-01-28T05:27:46.130Z,0
2018-01-28T05:28:55.665Z,0
2018-01-28T05:30:05.196Z,0
2018-01-28T05:31:15.262Z,0
2018-01-28T05:32:25.320Z,0
2018-01-28T05:33:35.373Z,0
2018-01-28T05:34:45.411Z,0
2018-01-28T05:35:55.471Z,0
2018-01-28T05:37:05.504Z,0
2018-01-28T05:38:15.546Z,0
2018-01-28T05:39:25.590Z,0
2018-01-28T05:40:35.635Z,0
2018-01-28T05:41:45.670Z,0
2018-01-28T05:42:55.766Z,0
2018-01-28T05:44:05.818Z,0
2018-01-28T05:45:15.857Z,0
2018-01-28T05:46:25.904Z,0
2018-01-28T05:47:35.429Z,0
2018-01-28T05:48:45.514Z,0
2018-01-28T05:49:55.289Z,0
2018-01-28T05:51:05.331Z,0
2018-01-28T05:52:15.371Z,0
2018-01-28T05:53:25.142Z,0
2018-01-28T05:54:35.179Z,0
2018-01-28T05:55:44.979Z,0
2018-01-28T05:56:55.026Z,4
2018-01-28T05:58:04.804Z,4
2018-01-28T05:59:14.847Z,0
2018-01-28T06:00:24.880Z,0
2018-01-28T06:01:34.661Z,4
2018-01-28T06:02:44.754Z,0
2018-01-28T06:03:54.793Z,4
2018-01-28T06:05:04.871Z,4
2018-01-28T06:06:14.911Z,4
2018-01-28T06:07:24.955Z,4
2018-01-28T06:08:34.985Z,8
2018-01-28T06:09:44.760Z,8
2018-01-28T06:10:54.805Z,12
2018-01-28T06:12:04.846Z,12
2018-01-28T06:13:15.052Z,16
2018-01-28T06:14:25.089Z,20
2018-01-28T06:15:34.878Z,24
2018-01-28T06:16:44.663Z,28
2018-01-28T06:17:54.454Z,32
2018-01-28T06:19:04.502Z,36
2018-01-28T06:20:14.537Z,40
2018-01-28T06:21:24.586Z,48
2018-01-28T06:22:34.371Z,52
2018-01-28T06:23:44.470Z,56
2018-01-28T06:24:54.526Z,56
2018-01-28T06:26:04.548Z,64
2018-01-28T06:27:14.325Z,72
2018-01-28T06:28:24.097Z,80
2018-01-28T06:29:33.879Z,88
2018-01-28T06:30:43.920Z,104
2018-01-28T06:31:53.964Z,112
2018-01-28T06:33:03.749Z,128
2018-01-28T06:34:13.542Z,144
2018-01-28T06:35:23.624Z,152
2018-01-28T06:36:33.741Z,168
2018-01-28T06:37:43.808Z,184
2018-01-28T06:38:53.848Z,196
2018-01-28T06:40:03.643Z,212
2018-01-28T06:41:13.449Z,232
2018-01-28T06:42:23.507Z,252
2018-01-28T06:43:33.559Z,276
2018-01-28T06:44:43.589Z,300
2018-01-28T06:45:53.638Z,324
2018-01-28T06:47:03.729Z,348
2018-01-28T06:48:13.762Z,372
2018-01-28T06:49:23.558Z,400
2018-01-28T06:50:33.635Z,424
2018-01-28T06:51:43.412Z,452
2018-01-28T06:52:53.195Z,484
2018-01-28T06:54:03.241Z,512
2018-01-28T06:55:13.297Z,548
2018-01-28T06:56:23.354Z,588
2018-01-28T06:57:33.145Z,616
2018-01-28T06:58:43.190Z,644
2018-01-28T06:59:52.992Z,676
2018-01-28T07:01:02.780Z,696
2018-01-28T07:02:12.557Z,712
2018-01-28T07:03:22.092Z,748
2018-01-28T07:04:31.881Z,768
2018-01-28T07:05:41.672Z,792
2018-01-28T07:06:51.713Z,816
2018-01-28T07:08:01.502Z,840
2018-01-28T07:09:11.552Z,868
2018-01-28T07:10:21.595Z,900
2018-01-28T07:11:31.636Z,944
2018-01-28T07:12:41.686Z,984
2018-01-28T07:13:51.478Z,1024
2018-01-28T07:15:01.551Z,1056
2018-01-28T07:16:11.661Z,1080
2018-01-28T07:17:21.703Z,1112
2018-01-28T07:18:31.755Z,1136
2018-01-28T07:19:41.547Z,1164
2018-01-28T07:20:51.580Z,1196
2018-01-28T07:22:01.640Z,1244
2018-01-28T07:23:11.674Z,1272
2018-01-28T07:24:21.717Z,1312
2018-01-28T07:25:31.503Z,1352
2018-01-28T07:26:41.288Z,1396
2018-01-28T07:27:51.355Z,1436
2018-01-28T07:29:01.134Z,1480
2018-01-28T07:30:10.923Z,1536
2018-01-28T07:31:20.981Z,1624
2018-01-28T07:32:31.020Z,1728
2018-01-28T07:33:41.067Z,1828
2018-01-28T07:34:50.866Z,1920
2018-01-28T07:36:00.647Z,1952
2018-01-28T07:37:10.704Z,1924
2018-01-28T07:38:20.814Z,1940
2018-01-28T07:39:30.890Z,2028
2018-01-28T07:40:40.943Z,2132
2018-01-28T07:41:50.736Z,2164
2018-01-28T07:43:00.794Z,2216
2018-01-28T07:44:10.567Z,2328
2018-01-28T07:45:20.342Z,2416
2018-01-28T07:46:30.408Z,2492
2018-01-28T07:47:40.465Z,2608
2018-01-28T07:48:50.080Z,2592
2018-01-28T07:49:59.867Z,2596
2018-01-28T07:51:09.891Z,2604
2018-01-28T07:52:19.676Z,2572
2018-01-28T07:53:29.733Z,2600
2018-01-28T07:54:39.791Z,2632
2018-01-28T07:55:49.845Z,2576
2018-01-28T07:56:59.888Z,2532
2018-01-28T07:58:09.957Z,2476
2018-01-28T07:59:20.019Z,2420
2018-01-28T08:00:30.052Z,2316
2018-01-28T08:01:39.855Z,2372
2018-01-28T08:02:49.651Z,2360
2018-01-28T08:03:59.698Z,2444
2018-01-28T08:05:09.771Z,2472
2018-01-28T08:06:19.830Z,2580
2018-01-28T08:07:29.861Z,2876
2018-01-28T08:08:39.922Z,3020
2018-01-28T08:09:49.969Z,3148
2018-01-28T08:11:00.014Z,3092
2018-01-28T08:12:10.135Z,3060
2018-01-28T08:13:20.191Z,3032
2018-01-28T08:14:30.379Z,2932
2018-01-28T08:15:40.502Z,2832
2018-01-28T08:16:50.994Z,2792
2018-01-28T08:18:01.027Z,2948
2018-01-28T08:19:11.252Z,3044
2018-01-28T08:20:21.044Z,3084
2018-01-28T08:21:31.080Z,3136
2018-01-28T08:22:41.188Z,3264
2018-01-28T08:23:51.298Z,3212
2018-01-28T08:25:01.423Z,3132
2018-01-28T08:26:11.242Z,3180
2018-01-28T08:27:21.539Z,3376
2018-01-28T08:28:31.615Z,3608
2018-01-28T08:29:41.457Z,3712
2018-01-28T08:30:51.520Z,3832
2018-01-28T08:32:01.628Z,3984
2018-01-28T08:33:11.737Z,4048
2018-01-28T08:34:21.790Z,4092
2018-01-28T08:35:31.857Z,4080
2018-01-28T08:36:41.929Z,4156
2018-01-28T08:37:51.455Z,4380
2018-01-28T08:39:00.987Z,4784
2018-01-28T08:40:11.050Z,5164
2018-01-28T08:41:21.170Z,5112
2018-01-28T08:42:31.214Z,4824
2018-01-28T08:43:41.258Z,4660
2018-01-28T08:44:51.310Z,4560
2018-01-28T08:46:01.363Z,3660
2018-01-28T08:47:11.145Z,3056
2018-01-28T08:48:20.957Z,2880
2018-01-28T08:49:31.005Z,2772
2018-01-28T08:50:41.061Z,2700
2018-01-28T08:51:51.173Z,2692
2018-01-28T08:53:01.227Z,2708
2018-01-28T08:54:11.285Z,2744
2018-01-28T08:55:21.398Z,2764
2018-01-28T08:56:31.463Z,2712
2018-01-28T08:57:41.285Z,2632
2018-01-28T08:58:51.323Z,2560
2018-01-28T09:00:01.100Z,2540
2018-01-28T09:01:11.160Z,2516
2018-01-28T09:02:21.240Z,2516
2018-01-28T09:03:30.793Z,2576
2018-01-28T09:04:40.867Z,2704
2018-01-28T09:05:50.939Z,2864
2018-01-28T09:07:01.055Z,3040
2018-01-28T09:08:11.149Z,3156
2018-01-28T09:09:21.226Z,3232
2018-01-28T09:10:31.287Z,3272
2018-01-28T09:11:41.084Z,3308
2018-01-28T09:12:50.897Z,3364
2018-01-28T09:14:00.961Z,3396
2018-01-28T09:15:10.761Z,3436
2018-01-28T09:16:20.572Z,3428
2018-01-28T09:17:29.845Z,3396
2018-01-28T09:18:40.200Z,3280
2018-01-28T09:19:50.019Z,3128
2018-01-28T09:20:59.855Z,3084
2018-01-28T09:22:09.917Z,2916
2018-01-28T09:23:19.708Z,2864
2018-01-28T09:24:29.792Z,2900
2018-01-28T09:25:39.888Z,2852
2018-01-28T09:26:49.728Z,3320
2018-01-28T09:27:59.834Z,3312
2018-01-28T09:29:09.896Z,3472
2018-01-28T09:30:19.998Z,2860
2018-01-28T09:31:30.055Z,2936
2018-01-28T09:32:40.102Z,3528
2018-01-28T09:33:50.184Z,2552
2018-01-28T09:35:00.246Z,2684
2018-01-28T09:36:10.366Z,2744
2018-01-28T09:37:20.463Z,2464
2018-01-28T09:38:30.538Z,2424
2018-01-28T09:39:40.594Z,2548
2018-01-28T09:40:50.641Z,2596
2018-01-28T09:42:00.499Z,2920
2018-01-28T09:43:10.297Z,2896
2018-01-28T09:44:20.335Z,3468
2018-01-28T09:45:30.140Z,3156
2018-01-28T09:46:40.212Z,2888
2018-01-28T09:47:50.024Z,2924
2018-01-28T09:49:00.078Z,2624
2018-01-28T09:50:10.128Z,2600
2018-01-28T09:51:20.177Z,2360
2018-01-28T09:52:30.243Z,2248
2018-01-28T09:53:40.514Z,2168
2018-01-28T09:54:50.562Z,2112
2018-01-28T09:56:00.632Z,2088
2018-01-28T09:57:10.439Z,2084
2018-01-28T09:58:20.505Z,2092
2018-01-28T09:59:30.610Z,2108
2018-01-28T10:00:40.672Z,2140
2018-01-28T10:01:50.745Z,2148
2018-01-28T10:03:00.811Z,2140
2018-01-28T10:04:10.628Z,2128
2018-01-28T10:05:20.426Z,2124
2018-01-28T10:06:30.488Z,2108
2018-01-28T10:07:40.339Z,2080
2018-01-28T10:08:50.416Z,2052
2018-01-28T10:10:00.473Z,2032
2018-01-28T10:11:10.565Z,2036
2018-01-28T10:12:20.649Z,2068
2018-01-28T10:13:30.518Z,2116
2018-01-28T10:14:40.325Z,2172
2018-01-28T10:15:50.379Z,2216
2018-01-28T10:17:00.208Z,2264
2018-01-28T10:18:10.259Z,2320
2018-01-28T10:19:20.333Z,2372
2018-01-28T10:20:30.407Z,2428
2018-01-28T10:21:40.486Z,2488
2018-01-28T10:22:50.605Z,2548
2018-01-28T10:24:02.204Z,2680
2018-01-28T10:25:13.623Z,2840
2018-01-28T10:26:23.708Z,2984
2018-01-28T10:27:33.520Z,3064
2018-01-28T10:28:43.673Z,3056
2018-01-28T10:29:53.734Z,3044
2018-01-28T10:31:03.619Z,3104
2018-01-28T10:32:13.678Z,3256
2018-01-28T10:33:23.760Z,3472
2018-01-28T10:34:33.883Z,3708
2018-01-28T10:35:43.941Z,3896
2018-01-28T10:36:53.747Z,3984
2018-01-28T10:38:04.326Z,3992
2018-01-28T10:39:14.392Z,3976
2018-01-28T10:40:24.450Z,3952
2018-01-28T10:41:34.512Z,3952
2018-01-28T10:42:44.576Z,3944
2018-01-28T10:43:54.631Z,3908
2018-01-28T10:45:04.722Z,3868
2018-01-28T10:46:14.313Z,3824
2018-01-28T10:47:24.388Z,3812
2018-01-28T10:48:34.466Z,3836
2018-01-28T10:49:44.529Z,3816
2018-01-28T10:50:54.584Z,3748
2018-01-28T10:52:04.734Z,3652
2018-01-28T10:53:14.552Z,3592
2018-01-28T10:54:24.614Z,3560
2018-01-28T10:55:34.689Z,3548
2018-01-28T10:56:44.485Z,3612
2018-01-28T10:57:53.805Z,3692
2018-01-28T10:59:03.606Z,3756
2018-01-28T11:00:13.472Z,3760
2018-01-28T11:01:23.275Z,3760
2018-01-28T11:02:33.352Z,3700
2018-01-28T11:03:43.486Z,3612
2018-01-28T11:04:53.610Z,3480
2018-01-28T11:06:03.698Z,3432
2018-01-28T11:07:13.758Z,3352
2018-01-28T11:08:23.588Z,3296
2018-01-28T11:09:33.657Z,3244
2018-01-28T11:10:43.481Z,3208
2018-01-28T11:11:53.562Z,3188
2018-01-28T11:13:03.380Z,3176
2018-01-28T11:14:13.445Z,3168
2018-01-28T11:15:23.511Z,3168
2018-01-28T11:16:33.333Z,3212
2018-01-28T11:17:43.404Z,3288
2018-01-28T11:18:53.497Z,3376
2018-01-28T11:20:03.596Z,3432
2018-01-28T11:21:13.717Z,3396
2018-01-28T11:22:23.791Z,3332
2018-01-28T11:23:33.880Z,3336
2018-01-28T11:24:43.940Z,3340
2018-01-28T11:25:53.785Z,3300
2018-01-28T11:27:03.666Z,3244
2018-01-28T11:28:13.780Z,3228
2018-01-28T11:29:23.939Z,3248
2018-01-28T11:30:34.904Z,3316
2018-01-28T11:31:44.770Z,3384
2018-01-28T11:32:54.823Z,3516
2018-01-28T11:34:04.636Z,3748
2018-01-28T11:35:14.446Z,4012
2018-01-28T11:36:24.486Z,4268
2018-01-28T11:37:34.611Z,4524
2018-01-28T11:38:44.694Z,4748
2018-01-28T11:39:54.756Z,4896
2018-01-28T11:41:04.832Z,4860
2018-01-28T11:42:14.930Z,5040
2018-01-28T11:43:24.747Z,5140
2018-01-28T11:44:34.852Z,4756
2018-01-28T11:45:45.029Z,4976
2018-01-28T11:46:54.902Z,7048
2018-01-28T11:48:05.036Z,7508
2018-01-28T11:49:15.103Z,7816
2018-01-28T11:50:24.919Z,7216
2018-01-28T11:51:34.842Z,5248
2018-01-28T11:52:44.652Z,5448
2018-01-28T11:53:54.233Z,5244
2018-01-28T11:55:04.122Z,5236
2018-01-28T11:56:14.266Z,4872
2018-01-28T11:57:24.393Z,4936
2018-01-28T11:58:34.221Z,5144
2018-01-28T11:59:44.178Z,5260
2018-01-28T12:00:54.394Z,5540
2018-01-28T12:02:04.615Z,6572
2018-01-28T12:03:15.687Z,6296
2018-01-28T12:04:27.881Z,4820
2018-01-28T12:05:40.499Z,5720
2018-01-28T12:06:50.312Z,6844
2018-01-28T12:08:00.364Z,6548
2018-01-28T12:09:10.218Z,5244
2018-01-28T12:10:20.309Z,5080
2018-01-28T12:11:30.362Z,5480
2018-01-28T12:12:40.181Z,5748
2018-01-28T12:13:50.352Z,6416
2018-01-28T12:14:59.901Z,4984
2018-01-28T12:16:09.977Z,5416
2018-01-28T12:17:20.213Z,5128
2018-01-28T12:18:30.466Z,6012
2018-01-28T12:19:40.826Z,5976
2018-01-28T12:20:51.063Z,5684
2018-01-28T12:22:01.239Z,5324
2018-01-28T12:23:11.315Z,5392
2018-01-28T12:24:21.390Z,4940
2018-01-28T12:25:31.281Z,4732
2018-01-28T12:26:41.377Z,5660
2018-01-28T12:27:51.457Z,5308
2018-01-28T12:29:01.559Z,5324
2018-01-28T12:30:11.648Z,6920
2018-01-28T12:31:22.036Z,6136
2018-01-28T12:32:32.104Z,5088
2018-01-28T12:33:41.922Z,4648
2018-01-28T12:34:51.717Z,5060
2018-01-28T12:36:01.525Z,5184
2018-01-28T12:37:11.619Z,5224
2018-01-28T12:38:21.715Z,4896
2018-01-28T12:39:31.805Z,5168
2018-01-28T12:40:41.899Z,4556
2018-01-28T12:41:51.717Z,5680
2018-01-28T12:43:01.870Z,5768
2018-01-28T12:44:11.948Z,5228
2018-01-28T12:45:22.010Z,4220
2018-01-28T12:46:32.572Z,4160
2018-01-28T12:47:42.682Z,4052
2018-01-28T12:48:52.588Z,4172
2018-01-28T12:50:02.388Z,4160
2018-01-28T12:51:12.466Z,4148
2018-01-28T12:52:22.322Z,3952
2018-01-28T12:53:32.131Z,3528
2018-01-28T12:54:42.255Z,3564
2018-01-28T12:55:52.314Z,3532
2018-01-28T12:57:02.367Z,3272
2018-01-28T12:58:12.527Z,3344
2018-01-28T12:59:22.591Z,3420
2018-01-28T13:00:32.866Z,3344
2018-01-28T13:01:42.925Z,3212
2018-01-28T13:02:52.748Z,3116
2018-01-28T13:04:02.843Z,3040
2018-01-28T13:05:12.932Z,2900
2018-01-28T13:06:22.717Z,2820
2018-01-28T13:07:32.774Z,2788
2018-01-28T13:08:42.646Z,2744
2018-01-28T13:09:52.499Z,2704
2018-01-28T13:11:02.550Z,2636
2018-01-28T13:12:12.696Z,2540
2018-01-28T13:13:22.763Z,2448
2018-01-28T13:14:32.563Z,2356
2018-01-28T13:15:42.674Z,2284
2018-01-28T13:16:52.743Z,2232
2018-01-28T13:18:02.636Z,2192
2018-01-28T13:19:12.720Z,2172
2018-01-28T13:20:22.866Z,2160
2018-01-28T13:21:32.933Z,2148
2018-01-28T13:22:43.791Z,2156
2018-01-28T13:23:53.796Z,2172
2018-01-28T13:25:03.859Z,2188
2018-01-28T13:26:13.938Z,2200
2018-01-28T13:27:24.095Z,2192
2018-01-28T13:28:34.181Z,2204
2018-01-28T13:29:44.256Z,2192
2018-01-28T13:30:54.068Z,2140
2018-01-28T13:32:03.852Z,2072
2018-01-28T13:33:13.944Z,1996
2018-01-28T13:34:24.007Z,1988
2018-01-28T13:35:33.812Z,2004
2018-01-28T13:36:43.622Z,1972
2018-01-28T13:37:53.684Z,1960
2018-01-28T13:39:03.899Z,2004
2018-01-28T13:40:14.199Z,2048
2018-01-28T13:41:24.374Z,2060
2018-01-28T13:42:34.473Z,2020
2018-01-28T13:43:44.548Z,1984
2018-01-28T13:44:54.418Z,1948
2018-01-28T13:46:04.496Z,1904
2018-01-28T13:47:14.686Z,1868
2018-01-28T13:48:24.616Z,1844
2018-01-28T13:49:34.746Z,1796
2018-01-28T13:50:44.634Z,1760
2018-01-28T13:51:54.476Z,1696
2018-01-28T13:53:04.680Z,1620
2018-01-28T13:54:14.827Z,1540
2018-01-28T13:55:24.949Z,1468
2018-01-28T13:56:35.039Z,1432
2018-01-28T13:57:45.217Z,1424
2018-01-28T13:58:55.348Z,1444
2018-01-28T14:00:05.415Z,1448
2018-01-28T14:01:15.477Z,1424
2018-01-28T14:02:25.748Z,1376
2018-01-28T14:03:35.322Z,1324
2018-01-28T14:04:45.412Z,1304
2018-01-28T14:05:55.483Z,1284
2018-01-28T14:07:05.587Z,1244
2018-01-28T14:08:15.719Z,1204
2018-01-28T14:09:25.614Z,1168
2018-01-28T14:10:35.750Z,1152
2018-01-28T14:11:45.831Z,1132
2018-01-28T14:12:55.932Z,1096
2018-01-28T14:14:06.001Z,1052
2018-01-28T14:15:17.204Z,1000
2018-01-28T14:16:27.354Z,948
2018-01-28T14:17:37.431Z,896
2018-01-28T14:18:47.255Z,828
2018-01-28T14:19:57.379Z,728
2018-01-28T14:21:07.522Z,652
2018-01-28T14:22:17.411Z,576
2018-01-28T14:23:27.323Z,536
2018-01-28T14:24:37.440Z,556
2018-01-28T14:25:47.003Z,576
2018-01-28T14:26:57.163Z,576
2018-01-28T14:28:07.420Z,560
2018-01-28T14:29:17.525Z,524
2018-01-28T14:30:27.597Z,468
2018-01-28T14:31:37.717Z,432
2018-01-28T14:32:47.555Z,404
2018-01-28T14:33:57.275Z,400
2018-01-28T14:35:07.322Z,384
2018-01-28T14:36:17.412Z,352
2018-01-28T14:37:27.897Z,348
2018-01-28T14:38:37.989Z,360
2018-01-28T14:39:48.200Z,388
2018-01-28T14:40:58.397Z,424
2018-01-28T14:42:08.586Z,452
2018-01-28T14:43:18.707Z,468
2018-01-28T14:44:28.813Z,460
2018-01-28T14:45:38.912Z,444
2018-01-28T14:46:48.982Z,432
2018-01-28T14:47:58.791Z,424
2018-01-28T14:49:08.637Z,420
2018-01-28T14:50:18.452Z,404
2018-01-28T14:51:28.521Z,372
2018-01-28T14:52:38.380Z,336
2018-01-28T14:53:48.457Z,316
2018-01-28T14:54:58.547Z,308
2018-01-28T14:56:10.251Z,304
2018-01-28T14:57:20.352Z,296
2018-01-28T14:58:30.468Z,292
2018-01-28T14:59:40.531Z,288
2018-01-28T15:00:50.570Z,276
2018-01-28T15:02:00.650Z,268
2018-01-28T15:03:10.701Z,256
2018-01-28T15:04:20.692Z,240
2018-01-28T15:05:31.683Z,224
2018-01-28T15:06:41.754Z,212
2018-01-28T15:07:51.817Z,200
2018-01-28T15:09:01.905Z,196
2018-01-28T15:10:13.448Z,192
2018-01-28T15:11:23.608Z,184
2018-01-28T15:12:33.690Z,180
2018-01-28T15:13:43.767Z,180
2018-01-28T15:14:53.912Z,176
2018-01-28T15:16:04.008Z,168
2018-01-28T15:17:13.835Z,156
2018-01-28T15:18:23.900Z,148
2018-01-28T15:19:33.732Z,140
2018-01-28T15:20:43.810Z,136
2018-01-28T15:21:53.956Z,128
2018-01-28T15:23:04.039Z,124
2018-01-28T15:24:14.129Z,116
2018-01-28T15:25:24.189Z,112
2018-01-28T15:26:34.270Z,108
2018-01-28T15:27:44.390Z,108
2018-01-28T15:28:55.876Z,104
2018-01-28T15:30:05.977Z,100
2018-01-28T15:31:15.806Z,96
2018-01-28T15:32:25.864Z,96
2018-01-28T15:33:36.261Z,92
2018-01-28T15:34:46.324Z,92
2018-01-28T15:35:56.138Z,84
2018-01-28T15:37:05.945Z,80
2018-01-28T15:38:15.778Z,76
2018-01-28T15:39:25.905Z,72
2018-01-28T15:40:35.434Z,68
2018-01-28T15:41:45.249Z,64
2018-01-28T15:42:55.338Z,56
2018-01-28T15:44:05.412Z,52
2018-01-28T15:45:15.221Z,48
2018-01-28T15:46:25.334Z,44
2018-01-28T15:47:35.415Z,40
2018-01-28T15:48:45.521Z,40
2018-01-28T15:49:55.385Z,36
2018-01-28T15:51:05.517Z,36
2018-01-28T15:52:15.607Z,32
2018-01-28T15:53:25.487Z,28
2018-01-28T15:54:35.608Z,28
2018-01-28T15:55:45.673Z,24
2018-01-28T15:56:55.812Z,20
2018-01-28T15:58:05.657Z,16
2018-01-28T15:59:16.844Z,16
2018-01-28T16:00:26.908Z,12
2018-01-28T16:01:36.988Z,8
2018-01-28T16:02:46.834Z,8
2018-01-28T16:03:56.923Z,4
2018-01-28T16:05:07.015Z,4
2018-01-28T16:06:17.203Z,4
2018-01-28T16:07:27.613Z,4
2018-01-28T16:08:38.065Z,4
2018-01-28T16:09:48.147Z,0
2018-01-28T16:10:58.217Z,0
2018-01-28T16:12:08.278Z,4
2018-01-28T16:13:18.137Z,4
2018-01-28T16:14:28.244Z,4
2018-01-28T16:15:38.424Z,0
2018-01-28T16:16:48.248Z,0
2018-01-28T16:17:58.336Z,0
2018-01-28T16:19:08.421Z,0
2018-01-28T16:20:18.782Z,0
2018-01-28T16:21:28.888Z,0
2018-01-28T16:22:38.971Z,0
2018-01-28T16:23:49.095Z,0
2018-01-28T16:24:59.215Z,0
2018-01-28T16:26:09.271Z,0
2018-01-28T16:27:19.376Z,0
2018-01-28T16:28:30.539Z,0
2018-01-28T16:29:40.646Z,0
2018-01-28T16:30:50.751Z,0
2018-01-28T16:32:00.300Z,0
2018-01-28T16:33:10.399Z,0
2018-01-28T16:34:20.494Z,0
2018-01-28T16:35:30.591Z,0
2018-01-28T16:36:41.852Z,0
2018-01-28T16:37:51.663Z,0
2018-01-28T16:39:01.747Z,0
2018-01-28T16:40:11.813Z,0
2018-01-28T16:41:21.655Z,0
2018-01-28T16:42:31.725Z,0
2018-01-28T16:43:41.825Z,0
2018-01-28T16:44:51.633Z,0
2018-01-28T16:46:01.726Z,0
2018-01-28T16:47:11.841Z,0
2018-01-28T16:48:21.965Z,0
2018-01-28T16:49:33.058Z,0